Time;durP1;ratioP1;P1;durP2;ratioP2;P2;SDS_P1;SDS_P2;PMS_P1;PMS_P2;Temp;Humidity;BMP_temperature;BMP_pressure;BME280_temperature;BME280_humidity;BME280_pressure;Samples;Min_cycle;Max_cycle;Signal;HPM_P1;HPM_P2
2022/03/24 00:00:53;;;;;;;21.88;15.35;;;5.20;87.50;;;;;;5091354;28;20268;-71
2022/03/24 00:03:20;;;;;;;21.88;16.27;;;5.20;87.60;;;;;;5091092;28;20227;-71
2022/03/24 00:05:47;;;;;;;27.10;14.32;;;5.10;87.90;;;;;;5090629;28;20245;-71
2022/03/24 00:08:14;;;;;;;17.52;13.35;;;5.10;88.00;;;;;;5090429;28;20230;-70
2022/03/24 00:10:40;;;;;;;20.90;14.05;;;5.10;88.30;;;;;;5090671;28;20204;-70
2022/03/24 00:13:07;;;;;;;21.08;14.80;;;5.00;88.50;;;;;;5090974;28;20199;-70
2022/03/24 00:15:35;;;;;;;18.65;14.25;;;5.00;89.00;;;;;;5090440;28;20222;-70
2022/03/24 00:18:02;;;;;;;24.65;15.15;;;5.00;89.00;;;;;;5090381;28;20578;-70
2022/03/24 00:20:29;;;;;;;21.73;14.98;;;4.90;89.00;;;;;;5090868;28;20199;-70
2022/03/24 00:22:55;;;;;;;22.33;13.88;;;4.90;89.20;;;;;;5089882;28;20216;-71
2022/03/24 00:25:24;;;;;;;17.60;13.30;;;4.90;89.20;;;;;;5090151;28;20224;-70
2022/03/24 00:27:50;;;;;;;20.25;14.07;;;4.80;89.20;;;;;;5090364;28;20235;-70
2022/03/24 00:30:17;;;;;;;19.65;14.68;;;4.80;89.60;;;;;;5090761;28;20572;-70
2022/03/24 00:32:45;;;;;;;22.65;14.73;;;4.80;89.40;;;;;;5090166;28;20669;-71
2022/03/24 00:35:12;;;;;;;19.35;13.75;;;4.80;89.70;;;;;;5090497;28;20215;-71
2022/03/24 00:37:39;;;;;;;20.30;14.55;;;4.80;90.00;;;;;;5089635;28;20214;-70
2022/03/24 00:40:07;;;;;;;20.38;13.75;;;4.70;89.90;;;;;;5090049;28;20245;-70
2022/03/24 00:42:35;;;;;;;18.48;13.75;;;4.70;89.90;;;;;;5090087;28;20292;-71
2022/03/24 00:45:03;;;;;;;21.75;14.60;;;4.60;90.10;;;;;;5089707;28;20274;-70
2022/03/24 00:47:29;;;;;;;17.13;14.15;;;4.60;90.10;;;;;;5089706;28;20207;-71
2022/03/24 00:49:57;;;;;;;24.27;13.60;;;4.50;90.30;;;;;;5089936;28;20196;-71
2022/03/24 00:52:24;;;;;;;21.23;14.82;;;4.50;90.40;;;;;;5090332;28;20200;-70
2022/03/24 00:54:51;;;;;;;21.00;14.90;;;4.40;90.50;;;;;;5090260;28;20219;-71
2022/03/24 00:57:18;;;;;;;21.02;14.25;;;4.40;90.50;;;;;;5089138;28;20686;-70
2022/03/24 00:59:44;;;;;;;20.30;14.23;;;4.30;90.50;;;;;;5090036;28;20206;-70
2022/03/24 01:02:11;;;;;;;17.48;14.07;;;4.30;90.60;;;;;;5089818;28;20245;-70
2022/03/24 01:04:38;;;;;;;19.40;13.80;;;4.30;90.50;;;;;;5090116;28;20706;-71
2022/03/24 01:07:06;;;;;;;21.63;15.13;;;4.30;90.50;;;;;;5089140;28;20311;-71
2022/03/24 01:09:33;;;;;;;17.92;14.18;;;4.30;90.70;;;;;;5089909;28;20659;-71
2022/03/24 01:12:02;;;;;;;24.00;14.20;;;4.20;90.80;;;;;;5089948;28;20595;-71
2022/03/24 01:14:32;;;;;;;18.92;14.07;;;4.20;90.90;;;;;;5089444;28;20232;-71
2022/03/24 01:16:58;;;;;;;18.70;12.63;;;4.20;90.90;;;;;;5089648;28;20726;-70
2022/03/24 01:19:25;;;;;;;18.60;14.52;;;4.20;90.90;;;;;;5089539;28;20200;-70
2022/03/24 01:21:52;;;;;;;19.85;14.45;;;4.20;90.90;;;;;;5089900;28;20200;-70
2022/03/24 01:24:20;;;;;;;18.40;14.32;;;4.10;91.00;;;;;;5089394;28;20726;-70
2022/03/24 01:26:47;;;;;;;19.55;14.05;;;4.20;91.00;;;;;;5089372;28;20208;-70
2022/03/24 01:29:13;;;;;;;18.55;13.60;;;4.10;91.00;;;;;;5089792;28;20289;-71
2022/03/24 01:31:42;;;;;;;21.60;14.45;;;4.10;91.10;;;;;;5089612;28;20210;-71
2022/03/24 01:34:09;;;;;;;20.13;14.07;;;4.10;91.20;;;;;;5090090;28;20218;-71
2022/03/24 01:36:36;;;;;;;22.60;15.07;;;4.20;91.20;;;;;;5092243;28;20639;-71
2022/03/24 01:39:03;;;;;;;24.00;15.10;;;4.10;91.20;;;;;;5093220;28;20207;-70
2022/03/24 01:41:31;;;;;;;19.23;14.20;;;4.10;91.10;;;;;;5092933;28;20195;-70
2022/03/24 01:43:58;;;;;;;21.67;14.65;;;4.00;91.20;;;;;;5093400;28;20223;-70
2022/03/24 01:46:25;;;;;;;21.80;14.02;;;3.90;91.30;;;;;;5093180;28;20220;-70
2022/03/24 01:48:51;;;;;;;19.58;13.50;;;3.80;91.50;;;;;;5092584;28;20219;-70
2022/03/24 01:51:18;;;;;;;17.48;12.55;;;3.70;91.70;;;;;;5093312;28;20204;-71
2022/03/24 01:53:45;;;;;;;20.35;13.70;;;3.60;91.90;;;;;;5092805;28;20223;-70
2022/03/24 01:56:12;;;;;;;23.48;13.85;;;3.60;92.00;;;;;;5093066;28;20598;-70
2022/03/24 01:58:43;;;;;;;17.70;13.48;;;3.50;91.90;;;;;;5092472;28;20200;-70
2022/03/24 02:01:34;;;;;;;18.45;13.90;;;3.50;91.70;;;;;;5093252;28;20231;-70
2022/03/24 02:04:03;;;;;;;21.95;13.80;;;3.50;91.70;;;;;;5093087;28;20273;-71
2022/03/24 02:06:30;;;;;;;21.50;14.18;;;3.50;91.70;;;;;;5092171;28;20710;-70
2022/03/24 02:08:57;;;;;;;21.30;14.88;;;3.40;91.90;;;;;;5092443;28;20195;-71
2022/03/24 02:11:24;;;;;;;22.25;14.73;;;3.40;92.10;;;;;;5092357;28;20200;-69
2022/03/24 02:13:52;;;;;;;20.23;14.25;;;3.30;92.20;;;;;;5093091;28;20608;-70
2022/03/24 02:16:18;;;;;;;17.42;13.60;;;3.30;92.10;;;;;;5092378;28;20715;-71
2022/03/24 02:18:46;;;;;;;19.08;14.05;;;3.30;91.90;;;;;;5092642;28;20207;-71
2022/03/24 02:21:16;;;;;;;18.20;13.93;;;3.30;92.00;;;;;;5093420;28;20228;-71
2022/03/24 02:23:44;;;;;;;20.98;14.30;;;3.30;92.10;;;;;;5092109;28;20247;-70
2022/03/24 02:26:11;;;;;;;21.02;13.70;;;3.20;92.10;;;;;;5092541;28;20277;-70
2022/03/24 02:28:40;;;;;;;21.20;13.65;;;3.10;92.20;;;;;;5091451;28;20195;-70
2022/03/24 02:31:09;;;;;;;21.17;14.77;;;3.10;92.40;;;;;;5092571;28;20204;-70
2022/03/24 02:33:36;;;;;;;20.33;13.80;;;3.10;92.50;;;;;;5092093;28;20295;-71
2022/03/24 02:36:03;;;;;;;18.70;14.30;;;3.10;92.60;;;;;;5092316;28;20220;-70
2022/03/24 02:38:31;;;;;;;22.73;14.80;;;3.10;92.60;;;;;;5091861;28;20199;-70
2022/03/24 02:40:59;;;;;;;23.25;14.27;;;3.00;92.70;;;;;;5091882;28;20221;-71
2022/03/24 02:43:26;;;;;;;21.27;14.88;;;3.00;92.70;;;;;;5092054;28;20220;-70
2022/03/24 02:45:54;;;;;;;18.85;13.75;;;3.00;92.60;;;;;;5091459;28;20268;-71
2022/03/24 02:48:21;;;;;;;20.40;15.07;;;3.00;92.70;;;;;;5090724;28;20200;-71
2022/03/24 02:50:49;;;;;;;19.13;13.55;;;2.90;92.80;;;;;;5092005;28;20208;-70
2022/03/24 02:53:16;;;;;;;19.80;14.02;;;2.90;93.00;;;;;;5091873;28;20239;-70
2022/03/24 02:55:42;;;;;;;24.67;14.90;;;2.90;93.30;;;;;;5091808;28;20228;-70
2022/03/24 02:58:10;;;;;;;20.65;14.00;;;2.90;93.20;;;;;;5091140;28;20204;-70
2022/03/24 03:00:38;;;;;;;24.70;15.90;;;2.90;93.00;;;;;;5091959;28;20230;-70
2022/03/24 03:03:04;;;;;;;22.58;14.27;;;2.90;93.10;;;;;;5091507;28;20210;-71
2022/03/24 03:05:31;;;;;;;19.20;14.15;;;2.90;93.30;;;;;;5091568;28;20246;-70
2022/03/24 03:07:58;;;;;;;22.08;14.32;;;2.80;93.40;;;;;;5150162;22;20551;-67
2022/03/24 03:10:25;;;;;;;21.73;14.82;;;2.80;93.60;;;;;;5071038;28;20200;-67
2022/03/24 03:12:51;;;;;;;18.85;13.85;;;2.70;93.80;;;;;;5071406;28;20281;-67
2022/03/24 03:15:19;;;;;;;21.13;14.10;;;2.80;93.90;;;;;;5071206;28;20212;-67
2022/03/24 03:17:46;;;;;;;20.58;14.35;;;2.80;93.50;;;;;;5070790;28;20219;-67
2022/03/24 03:20:13;;;;;;;24.55;15.77;;;2.80;93.50;;;;;;5070932;28;20196;-67
2022/03/24 03:22:40;;;;;;;20.25;14.13;;;2.70;93.60;;;;;;5071025;28;20211;-67
2022/03/24 03:25:08;;;;;;;21.15;14.27;;;2.70;93.70;;;;;;5071114;28;20228;-67
2022/03/24 03:27:35;;;;;;;23.55;15.05;;;2.70;93.70;;;;;;5070261;28;20204;-67
2022/03/24 03:30:01;;;;;;;18.65;13.68;;;2.60;93.60;;;;;;5071113;28;20289;-68
2022/03/24 03:32:29;;;;;;;20.60;14.38;;;2.60;93.50;;;;;;5070430;28;20555;-67
2022/03/24 03:34:56;;;;;;;23.95;14.55;;;2.60;93.70;;;;;;5070931;28;20224;-68
2022/03/24 03:37:23;;;;;;;21.10;14.23;;;2.60;93.80;;;;;;5070082;28;20209;-67
2022/03/24 03:39:51;;;;;;;23.85;14.80;;;2.50;93.70;;;;;;5070730;28;20265;-67
2022/03/24 03:42:19;;;;;;;20.70;14.40;;;2.50;93.70;;;;;;5070827;28;20208;-67
2022/03/24 03:44:46;;;;;;;21.17;15.30;;;2.50;93.80;;;;;;5070226;28;20662;-67
2022/03/24 03:47:12;;;;;;;19.65;14.07;;;2.50;93.90;;;;;;5070161;28;20671;-67
2022/03/24 03:49:40;;;;;;;21.15;14.68;;;2.40;94.00;;;;;;5070438;28;20204;-67
2022/03/24 03:52:08;;;;;;;18.88;13.73;;;2.40;94.10;;;;;;5070693;28;20204;-67
2022/03/24 03:54:34;;;;;;;22.10;14.90;;;2.40;94.20;;;;;;5070121;28;20196;-67
2022/03/24 03:57:01;;;;;;;20.60;14.32;;;2.40;94.00;;;;;;5070037;28;20626;-67
2022/03/24 03:59:28;;;;;;;20.20;14.77;;;2.40;94.00;;;;;;5070413;28;20620;-67
2022/03/24 04:01:57;;;;;;;21.63;14.52;;;2.50;94.00;;;;;;5070014;28;20868;-67
2022/03/24 04:04:24;;;;;;;19.15;14.20;;;2.50;93.90;;;;;;5070726;28;20234;-67
2022/03/24 04:06:52;;;;;;;21.90;13.23;;;2.50;94.00;;;;;;5069137;28;20216;-67
2022/03/24 04:09:19;;;;;;;21.65;15.30;;;2.50;94.00;;;;;;5070419;28;20676;-67
2022/03/24 04:11:46;;;;;;;22.48;14.05;;;2.40;94.00;;;;;;5070201;28;20584;-67
2022/03/24 04:14:13;;;;;;;19.00;13.60;;;2.40;94.00;;;;;;5070285;28;20200;-67
2022/03/24 04:16:40;;;;;;;22.65;14.45;;;2.40;93.80;;;;;;5069669;28;20228;-67
2022/03/24 04:19:07;;;;;;;22.92;14.02;;;2.40;93.90;;;;;;5069999;28;20208;-67
2022/03/24 04:21:34;;;;;;;23.13;15.18;;;2.30;94.00;;;;;;5070161;28;20223;-67
2022/03/24 04:24:03;;;;;;;20.95;14.15;;;2.30;94.10;;;;;;5069750;28;20224;-67
2022/03/24 04:26:30;;;;;;;20.42;14.57;;;2.20;94.20;;;;;;5070191;28;20224;-67
2022/03/24 04:28:56;;;;;;;20.70;15.02;;;2.20;94.30;;;;;;5069803;28;20782;-67
2022/03/24 04:31:23;;;;;;;21.20;14.98;;;2.10;94.00;;;;;;5070079;28;20211;-67
2022/03/24 04:33:50;;;;;;;18.02;13.38;;;2.00;94.10;;;;;;5069033;28;20224;-67
2022/03/24 04:36:17;;;;;;;22.45;14.43;;;2.00;94.40;;;;;;5060664;28;20298;-67
2022/03/24 04:38:43;;;;;;;19.15;13.18;;;1.90;94.50;;;;;;5058074;28;20188;-67
2022/03/24 04:41:11;;;;;;;20.38;14.10;;;1.80;94.70;;;;;;5060991;28;20192;-67
2022/03/24 04:43:38;;;;;;;19.13;13.43;;;1.80;94.70;;;;;;5059398;28;20251;-67
2022/03/24 04:46:05;;;;;;;19.70;15.20;;;1.80;94.80;;;;;;5059102;28;20706;-67
2022/03/24 04:48:35;;;;;;;22.25;13.88;;;1.80;94.90;;;;;;5060203;28;20238;-67
2022/03/24 04:51:04;;;;;;;19.98;14.68;;;1.80;95.00;;;;;;5060063;28;20287;-67
2022/03/24 04:53:32;;;;;;;21.77;14.88;;;1.80;95.00;;;;;;5058320;28;20193;-67
2022/03/24 04:55:59;;;;;;;21.23;15.25;;;1.80;94.70;;;;;;5060892;28;20647;-67
2022/03/24 04:58:27;;;;;;;22.05;15.25;;;1.80;94.60;;;;;;5063531;28;20228;-67
2022/03/24 05:00:54;;;;;;;20.95;15.38;;;1.80;94.60;;;;;;5058306;28;20207;-69
2022/03/24 05:03:21;;;;;;;22.95;15.80;;;1.80;94.70;;;;;;5065931;28;20232;-69
2022/03/24 05:05:48;;;;;;;20.05;14.60;;;1.80;94.60;;;;;;5059282;28;20741;-67
2022/03/24 05:08:15;;;;;;;25.02;15.93;;;1.70;94.60;;;;;;5057707;28;20200;-67
2022/03/24 05:10:41;;;;;;;23.48;15.23;;;1.70;94.80;;;;;;5059917;28;20189;-66
2022/03/24 05:13:08;;;;;;;23.90;14.70;;;1.70;94.90;;;;;;5062169;28;20193;-67
2022/03/24 05:15:36;;;;;;;19.85;14.00;;;1.70;95.00;;;;;;5063402;28;20577;-66
2022/03/24 05:18:03;;;;;;;19.98;13.90;;;1.70;94.90;;;;;;5064688;28;20192;-68
2022/03/24 05:20:30;;;;;;;22.38;14.90;;;1.70;94.90;;;;;;5063050;28;20220;-66
2022/03/24 05:22:57;;;;;;;21.45;14.50;;;1.60;94.80;;;;;;5063227;28;20204;-68
2022/03/24 05:25:25;;;;;;;20.58;15.30;;;1.60;94.90;;;;;;5061073;28;20223;-68
2022/03/24 05:27:51;;;;;;;20.13;13.68;;;1.60;95.00;;;;;;5069148;28;20197;-67
2022/03/24 05:30:18;;;;;;;22.08;14.85;;;1.60;94.90;;;;;;5073370;28;20635;-67
2022/03/24 05:32:46;;;;;;;21.65;15.18;;;1.50;95.00;;;;;;5052583;28;20200;-67
2022/03/24 05:35:13;;;;;;;22.20;16.05;;;1.60;95.10;;;;;;5050727;28;20221;-73
2022/03/24 05:37:41;;;;;;;25.58;15.00;;;1.60;95.10;;;;;;5050625;28;20232;-67
2022/03/24 05:40:09;;;;;;;25.00;15.63;;;1.70;95.00;;;;;;5051022;28;20619;-67
2022/03/24 05:42:35;;;;;;;23.08;15.43;;;1.70;95.00;;;;;;5053628;28;20200;-67
2022/03/24 05:45:02;;;;;;;23.35;14.90;;;1.70;95.00;;;;;;5058688;28;20780;-67
2022/03/24 05:47:30;;;;;;;23.58;15.43;;;1.70;94.90;;;;;;5069386;28;20197;-68
2022/03/24 05:49:58;;;;;;;22.38;15.30;;;1.80;94.90;;;;;;5071854;28;20287;-68
2022/03/24 05:52:25;;;;;;;21.75;14.35;;;1.80;95.00;;;;;;5070920;28;20204;-68
2022/03/24 05:54:52;;;;;;;21.58;15.75;;;1.80;95.10;;;;;;5072787;28;20283;-67
2022/03/24 05:57:19;;;;;;;24.17;14.73;;;1.80;95.20;;;;;;5071526;28;20204;-68
2022/03/24 05:59:46;;;;;;;23.63;16.20;;;1.80;95.30;;;;;;5071342;28;20200;-68
2022/03/24 06:02:14;;;;;;;25.42;15.52;;;1.80;95.40;;;;;;5071487;28;20291;-67
2022/03/24 06:04:42;;;;;;;20.30;14.10;;;1.80;95.50;;;;;;5071555;28;20642;-69
2022/03/24 06:07:11;;;;;;;26.10;15.45;;;1.90;95.50;;;;;;5070432;28;20536;-69
2022/03/24 06:09:38;;;;;;;23.92;14.90;;;1.90;95.50;;;;;;5071693;28;20317;-68
2022/03/24 06:12:08;;;;;;;25.00;16.08;;;2.00;95.70;;;;;;5071275;28;20204;-67
2022/03/24 06:14:36;;;;;;;18.23;13.48;;;2.10;95.80;;;;;;5070549;28;20732;-67
2022/03/24 06:17:04;;;;;;;22.77;16.02;;;2.20;95.80;;;;;;5070892;28;20597;-68
2022/03/24 06:19:31;;;;;;;22.83;15.70;;;2.30;95.60;;;;;;5070924;28;20215;-68
2022/03/24 06:21:58;;;;;;;20.30;13.52;;;2.50;95.20;;;;;;5070665;28;20204;-67
2022/03/24 06:24:26;;;;;;;20.35;14.07;;;2.60;95.20;;;;;;5071038;28;20220;-67
2022/03/24 06:26:53;;;;;;;22.50;14.00;;;2.70;95.30;;;;;;5070363;28;20208;-67
2022/03/24 06:29:21;;;;;;;22.00;14.77;;;2.70;95.50;;;;;;5070617;28;20208;-68
2022/03/24 06:31:48;;;;;;;20.80;14.07;;;2.80;95.60;;;;;;5070609;28;20209;-68
2022/03/24 06:34:15;;;;;;;18.52;14.07;;;2.90;95.50;;;;;;5070973;28;20200;-67
2022/03/24 06:36:42;;;;;;;20.10;15.57;;;3.00;95.10;;;;;;5069635;28;20314;-67
2022/03/24 06:39:09;;;;;;;20.33;14.38;;;3.10;95.40;;;;;;5070804;28;20201;-68
2022/03/24 06:41:37;;;;;;;22.55;14.65;;;3.20;95.20;;;;;;5070836;28;20215;-68
2022/03/24 06:44:06;;;;;;;21.50;15.45;;;3.40;95.10;;;;;;5069853;28;20235;-67
2022/03/24 06:46:33;;;;;;;22.92;15.80;;;3.50;95.00;;;;;;5070566;28;20613;-68
2022/03/24 06:49:00;;;;;;;23.77;15.60;;;3.60;95.10;;;;;;5070437;28;20208;-67
2022/03/24 06:51:27;;;;;;;16.92;12.85;;;3.70;94.80;;;;;;5070014;28;20303;-69
2022/03/24 06:53:54;;;;;;;19.98;14.68;;;3.90;94.70;;;;;;5070482;28;20246;-67
2022/03/24 06:56:21;;;;;;;20.13;14.85;;;4.00;94.80;;;;;;5070089;28;20216;-68
2022/03/24 06:58:49;;;;;;;21.67;15.85;;;4.20;94.80;;;;;;5069748;28;20235;-68
2022/03/24 07:01:17;;;;;;;23.13;15.35;;;4.30;94.70;;;;;;5067218;28;20196;-67
2022/03/24 07:03:43;;;;;;;18.70;14.00;;;4.50;94.80;;;;;;5050695;28;20573;-67
2022/03/24 07:06:10;;;;;;;21.45;14.85;;;4.60;94.90;;;;;;5050747;28;20254;-68
2022/03/24 07:08:37;;;;;;;20.70;15.15;;;4.90;95.20;;;;;;5050090;28;20935;-68
2022/03/24 07:11:04;;;;;;;21.30;15.23;;;5.00;95.00;;;;;;5051291;28;20205;-67
2022/03/24 07:13:31;;;;;;;21.13;15.05;;;5.30;95.00;;;;;;5050126;28;20223;-68
2022/03/24 07:15:59;;;;;;;21.33;14.88;;;5.50;95.20;;;;;;5050628;28;20236;-66
2022/03/24 07:18:26;;;;;;;23.00;16.27;;;5.90;95.30;;;;;;5049257;28;20311;-67
2022/03/24 07:20:52;;;;;;;20.88;14.57;;;6.20;94.90;;;;;;5070198;28;20609;-68
2022/03/24 07:23:20;;;;;;;20.50;14.13;;;6.70;94.30;;;;;;5070782;28;20208;-67
2022/03/24 07:25:46;;;;;;;26.25;15.23;;;7.30;93.50;;;;;;5070607;28;20654;-68
2022/03/24 07:28:14;;;;;;;26.90;16.17;;;8.00;92.50;;;;;;5069723;28;20297;-67
2022/03/24 07:30:42;;;;;;;22.75;15.48;;;8.60;92.10;;;;;;5059766;28;20841;-67
2022/03/24 07:33:11;;;;;;;18.30;13.85;;;9.20;91.40;;;;;;5050076;28;20205;-67
2022/03/24 07:35:37;;;;;;;22.23;14.43;;;9.80;90.60;;;;;;5049807;28;20622;-67
2022/03/24 07:38:04;;;;;;;19.55;15.40;;;10.50;89.00;;;;;;5049714;28;20212;-69
2022/03/24 07:40:31;;;;;;;19.48;15.60;;;11.10;88.00;;;;;;5062215;28;20212;-68
2022/03/24 07:42:58;;;;;;;20.02;15.18;;;11.70;85.80;;;;;;5069710;28;20200;-67
2022/03/24 07:45:26;;;;;;;18.27;14.30;;;12.30;84.10;;;;;;5069718;28;20231;-68
2022/03/24 07:48:13;;;;;;;20.17;14.67;;;12.80;82.40;;;;;;5069381;28;20667;-68
2022/03/24 07:50:42;;;;;;;20.60;16.10;;;13.40;82.20;;;;;;5069987;28;20531;-69
2022/03/24 07:53:24;;;;;;;18.50;14.57;;;13.90;80.90;;;;;;5069738;28;20988;-69
2022/03/24 07:55:51;;;;;;;20.13;16.07;;;14.50;80.20;;;;;;5069531;28;20474;-68
2022/03/24 07:58:20;;;;;;;19.90;15.40;;;15.10;78.40;;;;;;5069263;28;20470;-68
2022/03/24 08:00:47;;;;;;;20.43;15.30;;;15.60;77.20;;;;;;5069766;28;20895;-67
2022/03/24 08:03:18;;;;;;;19.10;14.63;;;16.20;75.60;;;;;;5070128;28;20458;-69
2022/03/24 08:05:45;;;;;;;17.00;14.63;;;16.80;75.10;;;;;;5068674;28;20496;-69
2022/03/24 08:08:12;;;;;;;24.90;16.27;;;17.40;74.10;;;;;;5069469;28;20478;-68
2022/03/24 08:10:40;;;;;;;23.73;16.80;;;17.60;72.30;;;;;;5069898;28;20465;-69
2022/03/24 08:13:08;;;;;;;20.50;15.43;;;18.00;71.60;;;;;;5069145;28;20945;-70
2022/03/24 08:15:36;;;;;;;19.43;16.37;;;18.50;70.40;;;;;;5069059;28;20482;-68
2022/03/24 08:18:04;;;;;;;20.97;18.57;;;18.90;70.30;;;;;;5067946;28;20455;-68
2022/03/24 08:20:32;;;;;;;20.77;16.20;;;19.40;68.80;;;;;;5069237;28;20458;-68
2022/03/24 08:22:59;;;;;;;24.17;17.67;;;19.60;67.10;;;;;;5069100;28;20477;-68
2022/03/24 08:25:26;;;;;;;18.47;16.20;;;20.10;66.60;;;;;;5068745;28;20490;-69
2022/03/24 08:27:53;;;;;;;21.57;17.07;;;20.60;63.90;;;;;;5069078;28;20459;-69
2022/03/24 08:30:19;;;;;;;19.33;16.43;;;20.70;63.20;;;;;;5068742;28;20469;-68
2022/03/24 08:32:46;;;;;;;23.27;17.60;;;21.00;62.90;;;;;;5069714;28;20454;-68
2022/03/24 08:35:13;;;;;;;21.03;16.70;;;21.50;61.70;;;;;;5068460;28;20993;-68
2022/03/24 08:37:41;;;;;;;19.80;16.67;;;21.70;60.90;;;;;;5068840;28;20459;-69
2022/03/24 08:40:10;;;;;;;21.73;16.30;;;22.00;61.20;;;;;;5069388;28;20459;-69
2022/03/24 08:42:38;;;;;;;23.80;16.80;;;22.30;60.00;;;;;;5068604;28;20459;-68
2022/03/24 08:45:05;;;;;;;18.57;16.57;;;22.50;58.70;;;;;;5070383;28;20545;-69
2022/03/24 08:47:32;;;;;;;16.80;15.03;;;22.50;57.10;;;;;;5072449;28;21154;-69
2022/03/24 08:49:59;;;;;;;16.43;14.67;;;23.20;56.10;;;;;;5060043;28;20835;-69
2022/03/24 08:52:27;;;;;;;18.30;16.40;;;23.70;55.70;;;;;;5053411;28;20465;-69
2022/03/24 08:54:55;;;;;;;20.17;15.30;;;23.80;54.00;;;;;;5053315;28;20479;-68
2022/03/24 08:57:26;;;;;;;16.27;14.67;;;24.10;53.00;;;;;;5053086;28;20465;-68
2022/03/24 08:59:53;;;;;;;19.47;17.47;;;24.80;53.80;;;;;;5053489;28;20553;-68
2022/03/24 09:02:21;;;;;;;26.67;19.70;;;25.10;51.90;;;;;;5053547;28;20495;-68
2022/03/24 09:04:48;;;;;;;22.23;19.10;;;25.40;51.30;;;;;;5053111;28;20541;-68
2022/03/24 09:07:15;;;;;;;22.23;19.70;;;25.60;52.00;;;;;;5052522;28;20954;-68
2022/03/24 09:09:42;;;;;;;25.60;21.13;;;25.50;52.90;;;;;;5053357;28;20463;-68
2022/03/24 09:12:11;;;;;;;22.80;18.13;;;25.80;53.30;;;;;;5053398;28;20463;-68
2022/03/24 09:14:38;;;;;;;26.70;19.10;;;26.20;52.80;;;;;;5053049;28;20463;-69
2022/03/24 09:17:04;;;;;;;20.17;17.97;;;26.60;50.60;;;;;;5052870;28;20491;-69
2022/03/24 09:19:32;;;;;;;20.57;18.00;;;26.30;51.10;;;;;;5052891;28;20466;-68
2022/03/24 09:21:59;;;;;;;20.17;17.80;;;26.20;50.90;;;;;;5053292;28;20463;-68
2022/03/24 09:24:26;;;;;;;21.67;17.93;;;26.50;50.70;;;;;;5053316;28;20550;-69
2022/03/24 09:26:54;;;;;;;21.87;18.17;;;27.10;51.00;;;;;;5052330;28;20853;-68
2022/03/24 09:29:22;;;;;;;22.27;18.47;;;27.50;51.10;;;;;;5053113;28;20521;-68
2022/03/24 09:31:49;;;;;;;21.37;18.07;;;27.60;50.40;;;;;;5052690;28;20509;-68
2022/03/24 09:34:16;;;;;;;19.53;17.53;;;28.00;50.00;;;;;;5052398;28;20452;-68
2022/03/24 09:36:43;;;;;;;23.30;19.63;;;28.40;49.10;;;;;;5052179;28;20480;-68
2022/03/24 09:39:10;;;;;;;22.43;20.07;;;28.40;48.70;;;;;;5067705;28;20468;-68
2022/03/24 09:41:38;;;;;;;21.83;18.33;;;28.00;49.20;;;;;;5072292;28;20459;-68
2022/03/24 09:44:07;;;;;;;20.77;18.63;;;27.60;49.60;;;;;;5072283;28;20888;-68
2022/03/24 09:46:35;;;;;;;21.10;18.27;;;27.40;49.00;;;;;;5071174;28;20495;-67
2022/03/24 09:49:02;;;;;;;19.77;17.63;;;27.40;50.20;;;;;;5072292;28;20511;-68
2022/03/24 09:51:29;;;;;;;25.63;18.33;;;27.80;49.70;;;;;;5072247;28;20481;-68
2022/03/24 09:53:56;;;;;;;21.93;17.20;;;27.40;49.90;;;;;;5072688;28;20913;-68
2022/03/24 09:56:23;;;;;;;22.53;18.13;;;27.80;48.70;;;;;;5070698;28;20475;-69
2022/03/24 09:58:50;;;;;;;20.30;18.13;;;28.50;48.70;;;;;;5071712;28;20956;-68
2022/03/24 10:01:17;;;;;;;20.30;16.50;;;29.10;49.70;;;;;;5072412;28;20464;-69
2022/03/24 10:04:03;;;;;;;18.80;17.00;;;29.70;48.70;;;;;;5071831;28;20904;-69
2022/03/24 10:06:30;;;;;;;15.70;14.30;;;30.20;44.90;;;;;;5071324;28;20583;-68
2022/03/24 10:08:57;;;;;;;15.70;14.30;;;30.10;44.00;;;;;;5071562;28;20952;-69
2022/03/24 10:11:26;;;;;;;17.13;15.40;;;30.10;45.00;;;;;;5071910;28;20455;-69
2022/03/24 10:13:55;;;;;;;17.50;15.73;;;31.00;43.00;;;;;;5072262;28;20500;-67
2022/03/24 10:16:43;;;;;;;17.47;15.87;;;31.00;43.20;;;;;;5071196;28;20477;-69
2022/03/24 10:19:16;;;;;;;17.07;15.43;;;30.90;43.50;;;;;;5071521;28;20881;-68
2022/03/24 10:21:45;;;;;;;17.47;15.80;;;30.80;42.90;;;;;;5071658;28;20477;-68
2022/03/24 10:24:14;;;;;;;18.30;16.23;;;30.20;41.50;;;;;;5072091;28;20466;-68
2022/03/24 10:26:45;;;;;;;17.33;15.63;;;29.90;42.60;;;;;;5070043;28;20502;-69
2022/03/24 10:29:13;;;;;;;18.20;16.50;;;29.80;44.40;;;;;;5071867;28;20466;-69
2022/03/24 10:31:41;;;;;;;16.93;15.20;;;30.10;43.10;;;;;;5071288;28;20861;-68
2022/03/24 10:34:10;;;;;;;16.43;15.03;;;30.50;44.90;;;;;;5071229;28;20857;-69
2022/03/24 10:36:41;;;;;;;16.90;15.40;;;30.90;42.60;;;;;;5070497;28;20572;-67
2022/03/24 10:39:09;;;;;;;16.70;15.00;;;30.90;41.70;;;;;;5070564;28;20470;-69
2022/03/24 10:41:37;;;;;;;15.67;14.27;;;31.10;42.00;;;;;;5070406;28;20827;-69
2022/03/24 10:44:07;;;;;;;15.73;14.20;;;31.20;42.50;;;;;;5071025;28;20457;-66
2022/03/24 10:46:35;;;;;;;14.70;13.30;;;31.40;41.20;;;;;;5070367;28;20493;-69
2022/03/24 10:49:18;;;;;;;13.00;11.90;;;31.40;39.10;;;;;;5071134;28;20459;-68
2022/03/24 10:51:48;;;;;;;14.70;13.30;;;31.60;39.60;;;;;;5071368;28;20468;-69
2022/03/24 10:54:25;;;;;;;14.03;12.73;;;31.50;39.90;;;;;;5071460;28;20458;-69
2022/03/24 10:56:58;;;;;;;13.70;12.50;;;31.80;36.20;;;;;;5070446;28;20465;-69
2022/03/24 10:59:28;;;;;;;15.03;13.63;;;32.00;38.90;;;;;;5071869;28;20980;-69
2022/03/24 11:01:55;;;;;;;12.17;10.77;;;31.90;38.80;;;;;;5070838;28;20462;-69
2022/03/24 11:04:23;;;;;;;12.67;11.57;;;31.50;36.30;;;;;;5071006;28;20464;-68
2022/03/24 11:06:52;;;;;;;13.40;12.20;;;32.00;37.40;;;;;;5070186;28;20521;-68
2022/03/24 11:09:23;;;;;;;13.47;11.70;;;32.70;36.60;;;;;;5069489;28;20456;-69
2022/03/24 11:12:26;;;;;;;13.10;11.90;;;32.00;37.40;;;;;;5071141;28;20875;-69
2022/03/24 11:14:55;;;;;;;11.80;10.80;;;31.70;36.40;;;;;;5070810;28;20930;-68
2022/03/24 11:17:24;;;;;;;11.13;10.13;;;31.50;37.10;;;;;;5070052;28;20455;-68
2022/03/24 11:19:58;;;;;;;10.20;9.30;;;31.80;36.40;;;;;;5070507;28;20464;-69
2022/03/24 11:22:38;;;;;;;12.10;10.97;;;31.70;36.60;;;;;;5070823;28;20464;-69
2022/03/24 11:25:06;;;;;;;11.40;10.47;;;32.40;36.40;;;;;;5070379;28;20481;-69
2022/03/24 11:27:34;;;;;;;12.23;11.20;;;32.60;37.00;;;;;;5069314;28;20493;-69
2022/03/24 11:30:02;;;;;;;13.97;12.77;;;32.90;37.30;;;;;;5070815;28;20476;-69
2022/03/24 11:32:29;;;;;;;12.53;11.50;;;32.30;36.30;;;;;;5069610;28;20564;-68
2022/03/24 11:34:56;;;;;;;12.10;11.00;;;32.00;37.70;;;;;;5070567;28;20525;-68
2022/03/24 11:37:24;;;;;;;12.40;11.30;;;32.00;38.10;;;;;;5069294;28;20458;-68
2022/03/24 11:40:05;;;;;;;13.10;12.10;;;31.70;37.90;;;;;;5070404;28;20889;-68
2022/03/24 11:42:35;;;;;;;12.47;11.30;;;32.20;37.70;;;;;;5069907;28;20556;-69
2022/03/24 11:45:08;;;;;;;13.03;11.93;;;32.10;36.50;;;;;;5069039;28;20485;-68
2022/03/24 11:47:52;;;;;;;13.37;12.27;;;32.20;37.00;;;;;;5069569;28;20493;-69
2022/03/24 11:50:34;;;;;;;11.33;10.33;;;32.70;37.30;;;;;;5069649;28;20964;-68
2022/03/24 11:53:12;;;;;;;11.17;10.17;;;32.60;36.40;;;;;;5070146;28;20843;-69
2022/03/24 11:55:39;;;;;;;11.63;10.63;;;31.80;35.20;;;;;;5069567;28;20890;-68
2022/03/24 11:58:09;;;;;;;11.13;9.87;;;31.40;35.90;;;;;;5069300;28;20442;-68
2022/03/24 12:00:42;;;;;;;11.47;10.47;;;31.40;36.10;;;;;;5070111;28;20491;-69
2022/03/24 12:03:45;;;;;;;10.67;9.67;;;31.70;35.60;;;;;;5070075;28;20462;-68
2022/03/24 12:06:13;;;;;;;10.57;9.60;;;32.00;36.90;;;;;;5070094;28;20495;-69
2022/03/24 12:08:48;;;;;;;10.60;9.60;;;32.10;37.20;;;;;;5068656;28;20474;-68
2022/03/24 12:11:39;;;;;;;9.80;9.00;;;32.00;36.30;;;;;;5070247;28;20468;-67
2022/03/24 12:14:09;;;;;;;11.70;10.50;;;32.50;33.10;;;;;;5069981;28;20468;-68
2022/03/24 12:16:38;;;;;;;11.60;10.70;;;32.30;35.60;;;;;;5069050;28;20836;-68
2022/03/24 12:19:05;;;;;;;12.13;11.13;;;32.30;35.20;;;;;;5069682;28;20464;-69
2022/03/24 12:21:32;;;;;;;13.13;11.87;;;32.20;35.20;;;;;;5069500;28;20877;-67
2022/03/24 12:24:10;;;;;;;11.20;10.33;;;32.10;35.90;;;;;;5069807;28;20500;-68
2022/03/24 12:26:41;;;;;;;12.27;11.17;;;32.40;35.10;;;;;;5068797;28;21007;-68
2022/03/24 12:29:20;;;;;;;14.13;12.83;;;31.70;36.60;;;;;;5070253;28;20460;-68
2022/03/24 12:31:57;;;;;;;14.80;13.50;;;31.50;37.90;;;;;;5069534;28;20467;-68
2022/03/24 12:34:29;;;;;;;14.10;12.87;;;31.80;37.90;;;;;;5069823;28;20513;-69
2022/03/24 12:36:56;;;;;;;15.97;14.47;;;31.90;36.40;;;;;;5068913;28;20456;-68
2022/03/24 12:39:33;;;;;;;14.63;13.30;;;31.40;37.10;;;;;;5069006;28;20944;-69